Overview Statistics Trail Chart Weather Telemetry Raw packets
 

This is the latest recevied weather packets stored in our database for station/object OM6ACB-6. If no packets are shown the sender has not sent any weather packets the latest 10 day(s).

<< 32 33 34 35 36 37 38 >>
Time Temp. Humidity Pressure Rain* Wind** Luminosity Snow
1788172357 32.22° C 20% 1021.6 hPa 0 mm - - -
1788171757 30° C 20% 1021.4 hPa 0 mm - - -
1788171156 30° C 20% 1021.4 hPa 0 mm - - -
1788170556 30° C 20% 1021.3 hPa 0 mm - - -
1788169956 33.33° C 20% 1021.8 hPa 0 mm - - -
1788169361 31.67° C 20% 1021.8 hPa 0 mm - - -
1788168755 30° C 20% 1021.5 hPa 0 mm - - -
1788168155 29.44° C 20% 1021.5 hPa 0 mm - - -
1788167555 29.44° C 20% 1021.7 hPa 0 mm - - -
1788166954 28.33° C 20% 1021.7 hPa 0 mm - - -
1788166354 27.22° C 20% 1021.4 hPa 0 mm - - -
1788165754 28.33° C 20% 1021.7 hPa 0 mm - - -
1788165153 25.56° C 20% 1021.3 hPa 0 mm - - -
1788164560 26.11° C 20% 1021.4 hPa 0 mm - - -
1788163953 23.89° C 21% 1021.2 hPa 0 mm - - -
1788163353 23.33° C 21% 1021.4 hPa 0 mm - - -
1788162752 24.44° C 20% 1021.2 hPa 0 mm - - -
1788162152 24.44° C 20% 1021.5 hPa 0 mm - - -
1788161552 22.78° C 21% 1021.2 hPa 0 mm - - -
1788160951 22.22° C 21% 1021.1 hPa 0 mm - - -
1788160351 24.44° C 20% 1021.6 hPa 0 mm - - -
1788159751 21.67° C 22% 1021.2 hPa 0 mm - - -
1788159150 20° C 22% 1021 hPa 0 mm - - -
1788158550 21.11° C 22% 1021.2 hPa 0 mm - - -
1788157950 19.44° C 23% 1021.1 hPa 0 mm - - -

* Rain latest hour (hover to see other rain measurements)
** Current wind speed in m/s (hover to see current wind gust speed)